Time;durP1;ratioP1;P1;durP2;ratioP2;P2;SDS_P1;SDS_P2;PMS_P1;PMS_P2;Temp;Humidity;BMP_temperature;BMP_pressure;BME280_temperature;BME280_humidity;BME280_pressure;Samples;Min_cycle;Max_cycle;Signal;HPM_P1;HPM_P2
2021/11/18 00:02:18;;;;;;;23.70;15.40;;;;;;;5.75;79.77;100241.13;227747;1198;139758;-68
2021/11/18 00:07:24;;;;;;;21.30;12.00;;;;;;;5.77;79.65;100237.48;227607;1198;139762;-70
2021/11/18 00:12:27;;;;;;;21.20;13.50;;;;;;;5.72;79.55;100233.73;226024;1200;140242;-69
2021/11/18 00:17:30;;;;;;;19.40;10.90;;;;;;;5.70;79.51;100233.27;227273;1198;141099;-69
2021/11/18 00:22:33;;;;;;;21.20;15.40;;;;;;;5.73;79.73;100238.88;226994;1199;142232;-69
2021/11/18 00:27:36;;;;;;;21.30;12.00;;;;;;;5.73;79.80;100239.27;226627;1198;139641;-70
2021/11/18 00:32:39;;;;;;;22.40;14.80;;;;;;;5.72;80.21;100238.90;226584;1198;140702;-68
2021/11/18 00:37:41;;;;;;;28.10;16.50;;;;;;;5.73;79.98;100244.45;228109;1198;140547;-69
2021/11/18 00:42:47;;;;;;;20.20;13.30;;;;;;;5.72;79.96;100246.96;227732;1198;140561;-69
2021/11/18 00:47:52;;;;;;;23.50;14.70;;;;;;;5.70;79.85;100246.94;227087;1198;139561;-68
2021/11/18 00:52:55;;;;;;;23.20;15.40;;;;;;;5.72;80.06;100252.13;228540;1198;139880;-69
2021/11/18 00:58:06;;;;;;;20.40;13.50;;;;;;;5.73;80.30;100251.77;227999;1198;140702;-68
2021/11/18 01:03:10;;;;;;;21.10;13.10;;;;;;;5.73;80.02;100254.13;226232;1198;139920;-69
2021/11/18 01:08:16;;;;;;;25.40;14.60;;;;;;;5.71;80.37;100250.29;227080;1198;140627;-69
2021/11/18 01:13:59;;;;;;;23.80;12.90;;;;;;;5.72;80.26;100259.36;226648;1198;141165;-69
2021/11/18 01:19:04;;;;;;;24.20;14.70;;;;;;;5.64;80.16;100262.06;229167;1198;140273;-70
2021/11/18 01:24:12;;;;;;;27.20;14.30;;;;;;;5.63;80.54;100263.64;229285;1198;140132;-70
2021/11/18 01:29:20;;;;;;;16.30;11.50;;;;;;;5.69;80.33;100271.15;228759;1199;140636;-69
2021/11/18 01:34:22;;;;;;;16.00;11.60;;;;;;;5.74;80.78;100270.17;228932;1198;140460;-69
2021/11/18 01:39:25;;;;;;;33.10;14.40;;;;;;;5.73;80.63;100270.61;229078;1198;139745;-69
2021/11/18 01:44:37;;;;;;;23.90;15.40;;;;;;;5.74;80.52;100266.84;228536;1198;140600;-68
2021/11/18 01:49:46;;;;;;;26.00;15.80;;;;;;;5.72;80.62;100277.89;227938;1198;141967;-68
2021/11/18 01:55:12;;;;;;;20.30;13.90;;;;;;;5.70;81.20;100282.30;226754;1188;140785;-68
2021/11/18 02:00:24;;;;;;;28.70;16.30;;;;;;;5.72;80.61;100282.09;227291;1198;143862;-68
2021/11/18 02:05:33;;;;;;;30.70;16.60;;;;;;;5.66;81.05;100282.67;227705;1199;139291;-68
2021/11/18 02:10:44;;;;;;;30.80;15.00;;;;;;;5.62;80.87;100281.00;227415;1198;140536;-68
2021/11/18 02:16:00;;;;;;;21.10;16.00;;;;;;;5.61;81.10;100286.11;226585;1198;140415;-68
2021/11/18 02:21:08;;;;;;;26.60;16.10;;;;;;;5.57;81.43;100291.73;227529;1198;141212;-70
2021/11/18 02:26:22;;;;;;;;;;;;;;;;;;;;;
2021/11/18 02:31:45;;;;;;;31.40;16.30;;;;;;;5.66;81.94;100282.18;226246;1198;141088;-69
2021/11/18 02:36:49;;;;;;;26.50;16.30;;;;;;;5.69;81.88;100288.60;227429;1198;140252;-70
2021/11/18 02:42:43;;;;;;;27.10;17.80;;;;;;;5.69;81.50;100287.91;226584;1198;140407;-69
2021/11/18 02:47:55;;;;;;;29.50;19.00;;;;;;;5.71;81.53;100293.63;227337;1198;140530;-69
2021/11/18 02:52:59;;;;;;;14.20;9.50;;;;;;;5.71;81.61;100301.92;226264;1198;139626;-69
2021/11/18 02:58:03;;;;;;;32.50;21.80;;;;;;;5.71;81.25;100306.04;228584;1198;139773;-69
2021/11/18 03:03:27;;;;;;;;;;;;;;;;;;;;;
2021/11/18 03:09:07;;;;;;;;;;;;;;;;;;;;;
2021/11/18 03:14:12;;;;;;;33.00;20.80;;;;;;;5.77;81.49;100308.20;228547;1198;142584;-69
2021/11/18 03:19:15;;;;;;;29.60;18.90;;;;;;;5.79;81.58;100309.66;229310;1198;140867;-69
2021/11/18 03:24:37;;;;;;;34.20;21.90;;;;;;;5.78;81.56;100315.80;227450;1199;140903;-68
2021/11/18 03:29:41;;;;;;;26.10;18.50;;;;;;;5.83;81.66;100322.40;229373;1198;140154;-69
2021/11/18 03:34:59;;;;;;;39.20;21.10;;;;;;;5.82;81.43;100318.73;229189;1198;140515;-69
2021/11/18 03:40:03;;;;;;;36.10;21.40;;;;;;;5.88;81.69;100318.92;227130;1198;140451;-69
2021/11/18 03:45:10;;;;;;;46.70;20.20;;;;;;;5.86;81.55;100314.38;227744;1198;139820;-69
2021/11/18 03:50:38;;;;;;;27.90;18.80;;;;;;;5.87;81.07;100316.17;228464;1198;140903;-70
2021/11/18 03:55:53;;;;;;;;;;;;;;;;;;;;;
2021/11/18 04:00:56;;;;;;;31.20;16.40;;;;;;;5.90;81.35;100313.27;228752;1198;126372;-69
2021/11/18 04:06:03;;;;;;;27.70;19.00;;;;;;;5.93;81.50;100309.91;227078;1198;141687;-68
2021/11/18 04:11:11;;;;;;;27.30;15.90;;;;;;;5.96;81.56;100316.26;226071;1198;140907;-68
2021/11/18 04:16:14;;;;;;;26.60;15.80;;;;;;;5.93;81.53;100315.34;226457;1198;142413;-69
2021/11/18 04:21:18;;;;;;;29.50;14.40;;;;;;;5.94;81.23;100322.46;227419;1198;140763;-69
2021/11/18 04:26:21;;;;;;;25.30;15.30;;;;;;;5.93;81.27;100323.77;226413;1199;141103;-69
2021/11/18 04:31:25;;;;;;;23.70;12.60;;;;;;;5.91;81.24;100324.10;227289;1198;140558;-69
2021/11/18 04:36:29;;;;;;;22.00;12.50;;;;;;;5.88;81.17;100320.22;226820;1199;139700;-68
2021/11/18 04:41:39;;;;;;;20.00;12.50;;;;;;;5.92;81.10;100329.24;227554;1198;140602;-69
2021/11/18 04:46:42;;;;;;;20.10;12.50;;;;;;;5.91;81.06;100338.33;226501;1198;140329;-69
2021/11/18 04:51:49;;;;;;;27.50;14.80;;;;;;;5.87;81.12;100340.20;227240;1198;142529;-69
2021/11/18 04:56:51;;;;;;;23.40;12.40;;;;;;;5.87;80.51;100342.92;226635;1198;140978;-69
2021/11/18 05:02:34;;;;;;;20.80;12.90;;;;;;;5.89;81.00;100344.92;226072;1198;139683;-69
2021/11/18 05:07:38;;;;;;;20.30;12.00;;;;;;;5.86;81.13;100356.20;226909;1198;141056;-69
2021/11/18 05:12:42;;;;;;;21.90;12.50;;;;;;;5.83;81.07;100355.50;227232;1198;140607;-69
2021/11/18 05:17:46;;;;;;;16.50;10.60;;;;;;;5.86;81.30;100358.38;227746;1198;140747;-69
2021/11/18 05:22:50;;;;;;;23.80;11.00;;;;;;;5.87;80.91;100363.13;229212;1198;141559;-72
2021/11/18 05:27:53;;;;;;;18.90;11.10;;;;;;;5.83;80.59;100359.05;229223;1198;139973;-72
2021/11/18 05:32:57;;;;;;;20.30;10.90;;;;;;;5.90;80.76;100355.55;229117;1198;142149;-71
2021/11/18 05:38:01;;;;;;;19.10;11.80;;;;;;;5.94;80.88;100354.75;228982;1199;140245;-71
2021/11/18 05:43:05;;;;;;;9.40;7.50;;;;;;;5.97;80.85;100362.27;227969;1199;140622;-69
2021/11/18 05:48:13;;;;;;;16.30;10.60;;;;;;;6.00;80.99;100364.05;229408;1198;162456;-69
2021/11/18 05:53:25;;;;;;;18.00;11.80;;;;;;;6.04;80.40;100365.89;228344;1198;140271;-68
2021/11/18 05:58:30;;;;;;;14.90;10.70;;;;;;;6.05;80.57;100369.80;227522;1198;139350;-68
2021/11/18 06:03:39;;;;;;;14.60;9.40;;;;;;;6.03;80.31;100365.02;226499;1198;140601;-67
2021/11/18 06:08:43;;;;;;;13.90;9.50;;;;;;;6.05;80.69;100368.84;227087;1198;139735;-68
2021/11/18 06:13:50;;;;;;;16.20;9.50;;;;;;;6.07;80.82;100375.57;228254;1199;139860;-69
2021/11/18 06:19:00;;;;;;;19.00;9.10;;;;;;;6.04;80.71;100379.98;226349;1198;139570;-69
2021/11/18 06:24:08;;;;;;;24.00;10.60;;;;;;;6.05;80.46;100378.03;226468;1198;139872;-68
2021/11/18 06:29:12;;;;;;;15.70;11.10;;;;;;;6.02;80.51;100388.43;226887;1198;140858;-69
2021/11/18 06:35:00;;;;;;;23.80;11.00;;;;;;;5.98;80.56;100394.58;226477;1198;140907;-69
2021/11/18 06:40:13;;;;;;;18.60;10.20;;;;;;;5.97;80.44;100399.64;226257;1198;140056;-70
2021/11/18 06:45:22;;;;;;;14.70;10.00;;;;;;;5.97;80.74;100404.62;227233;1198;140150;-68
2021/11/18 06:50:26;;;;;;;16.90;11.20;;;;;;;6.00;80.97;100409.77;226971;1198;139785;-69
2021/11/18 06:55:32;;;;;;;19.30;10.80;;;;;;;6.02;80.61;100414.73;226202;1198;141394;-68
2021/11/18 07:00:36;;;;;;;23.90;11.80;;;;;;;6.04;80.57;100412.23;227935;1198;140728;-69
2021/11/18 07:05:40;;;;;;;23.60;11.30;;;;;;;6.00;80.32;100407.83;226921;1198;141599;-71
2021/11/18 07:11:15;;;;;;;22.70;13.90;;;;;;;6.02;80.56;100412.85;226461;1198;141005;-70
2021/11/18 07:16:23;;;;;;;23.70;12.60;;;;;;;6.13;80.66;100412.90;226929;1198;141135;-71
2021/11/18 07:21:26;;;;;;;17.00;11.20;;;;;;;6.18;80.51;100410.96;228734;1199;140754;-70
2021/11/18 07:26:35;;;;;;;25.20;11.10;;;;;;;6.23;80.42;100412.39;228817;1198;139994;-69
2021/11/18 07:31:39;;;;;;;18.00;10.70;;;;;;;6.35;80.64;100410.72;229267;1198;140591;-69
2021/11/18 07:36:46;;;;;;;20.10;10.90;;;;;;;6.44;80.25;100406.05;229337;1198;153377;-69
2021/11/18 07:41:53;;;;;;;30.50;15.10;;;;;;;6.51;80.13;100416.21;228177;1198;139625;-71
2021/11/18 07:46:57;;;;;;;17.80;10.00;;;;;;;6.58;80.03;100414.29;227184;1198;152089;-69
2021/11/18 07:52:15;;;;;;;20.20;10.50;;;;;;;6.64;80.06;100418.98;228346;1198;140106;-71
2021/11/18 07:57:18;;;;;;;14.10;9.90;;;;;;;6.72;79.63;100434.65;227753;1198;139894;-69
2021/11/18 08:02:22;;;;;;;20.50;11.30;;;;;;;6.79;79.62;100437.81;228427;1198;151641;-70
2021/11/18 08:07:24;;;;;;;20.90;11.30;;;;;;;6.81;79.88;100440.01;226544;1198;140155;-69
2021/11/18 08:12:28;;;;;;;18.50;10.10;;;;;;;6.85;79.66;100447.48;226464;1198;140398;-71
2021/11/18 08:17:32;;;;;;;12.70;9.50;;;;;;;6.92;79.43;100451.14;226876;1198;141453;-68
2021/11/18 08:22:36;;;;;;;16.40;11.70;;;;;;;6.90;79.58;100457.77;226487;1198;140811;-68
2021/11/18 08:27:43;;;;;;;20.60;11.90;;;;;;;6.89;79.52;100460.05;227308;1198;141787;-73
2021/11/18 08:32:52;;;;;;;18.70;12.90;;;;;;;6.93;79.51;100474.55;227647;1198;140601;-71
2021/11/18 08:38:06;;;;;;;15.90;9.40;;;;;;;6.93;79.35;100474.55;226692;1199;140327;-72
2021/11/18 08:43:24;;;;;;;17.20;9.70;;;;;;;6.92;79.22;100479.77;226551;1198;139278;-69
2021/11/18 08:48:27;;;;;;;16.70;8.70;;;;;;;6.91;79.30;100486.04;228261;1198;142210;-71
2021/11/18 08:53:54;;;;;;;16.40;11.60;;;;;;;6.85;78.70;100491.23;226750;1183;139887;-71
2021/11/18 08:59:04;;;;;;;15.00;9.60;;;;;;;6.84;78.71;100482.91;227358;1198;140210;-68
2021/11/18 09:04:11;;;;;;;27.80;15.90;;;;;;;6.84;78.86;100489.11;226737;1198;140137;-69
2021/11/18 09:09:15;;;;;;;24.40;12.70;;;;;;;6.87;78.85;100495.26;226538;1198;144542;-69
2021/11/18 09:14:32;;;;;;;21.00;10.90;;;;;;;6.90;78.93;100496.30;226432;1198;139941;-70
2021/11/18 09:19:37;;;;;;;14.40;9.80;;;;;;;6.95;78.98;100495.28;227133;1199;140346;-69
2021/11/18 09:24:45;;;;;;;15.10;9.20;;;;;;;6.93;78.81;100495.63;226231;1198;140672;-71
2021/11/18 09:29:55;;;;;;;;;;;;;;;6.86;78.39;100499.81;228945;1198;141605;-71
2021/11/18 09:35:01;;;;;;;29.50;12.50;;;;;;;6.84;78.39;100484.02;229945;1198;126917;-71
2021/11/18 09:40:09;;;;;;;14.70;10.50;;;;;;;6.89;78.63;100481.77;229330;1198;141051;-69
2021/11/18 09:45:23;;;;;;;25.60;9.80;;;;;;;6.91;78.25;100470.14;228881;1199;141159;-69
2021/11/18 09:50:50;;;;;;;19.10;9.80;;;;;;;7.02;78.04;100472.48;228599;1198;205069;-71
2021/11/18 09:56:42;;;;;;;15.60;8.60;;;;;;;7.06;78.19;100475.85;227862;1199;140257;-70
2021/11/18 10:02:19;;;;;;;17.00;10.10;;;;;;;7.09;77.96;100479.91;226379;1199;140693;-71
2021/11/18 10:07:45;;;;;;;19.30;9.40;;;;;;;7.13;78.30;100483.98;226934;1198;141598;-72
2021/11/18 10:13:19;;;;;;;15.20;7.80;;;;;;;7.22;78.01;100481.64;227197;1198;139664;-70
2021/11/18 10:18:27;;;;;;;16.00;8.80;;;;;;;7.36;77.65;100484.97;227017;1199;141313;-69
2021/11/18 10:23:30;;;;;;;15.60;8.80;;;;;;;7.47;77.60;100479.65;226846;1198;140023;-73
2021/11/18 10:29:05;;;;;;;13.70;8.30;;;;;;;7.54;77.60;100474.68;226390;1198;140041;-73
2021/11/18 10:34:22;;;;;;;17.20;7.80;;;;;;;7.66;77.71;100465.53;227105;1199;139259;-73
2021/11/18 10:39:40;;;;;;;13.00;8.50;;;;;;;7.75;77.58;100467.83;228160;1198;140097;-69
2021/11/18 10:45:37;;;;;;;;;;;;;;;;;;;;;
2021/11/18 10:51:06;;;;;;;11.90;7.30;;;;;;;7.81;76.58;100472.63;227279;1199;140219;-69
2021/11/18 10:57:05;;;;;;;19.60;10.00;;;;;;;7.76;76.62;100479.26;226665;1198;237906;-69
2021/11/18 11:02:40;;;;;;;13.20;7.70;;;;;;;7.78;76.19;100475.23;226173;1199;141637;-69
2021/11/18 11:07:48;;;;;;;12.50;7.20;;;;;;;7.81;76.12;100473.68;226181;1200;144968;-70
2021/11/18 11:13:25;;;;;;;22.50;9.20;;;;;;;7.85;76.18;100484.16;228179;1199;139925;-71
2021/11/18 11:18:58;;;;;;;7.60;4.70;;;;;;;7.86;75.60;100484.66;227132;1198;139960;-70
2021/11/18 11:24:14;;;;;;;7.40;5.10;;;;;;;7.90;75.70;100473.20;228137;1198;140424;-68
2021/11/18 11:30:24;;;;;;;11.50;5.40;;;;;;;8.03;75.52;100479.14;227993;1198;139487;-69
2021/11/18 11:36:03;;;;;;;15.40;6.70;;;;;;;8.08;74.99;100487.98;228794;1198;141200;-69
2021/11/18 11:41:06;;;;;;;15.30;6.00;;;;;;;8.13;75.30;100480.36;227088;1198;139635;-70
2021/11/18 11:46:22;;;;;;;11.40;6.20;;;;;;;8.18;75.36;100472.94;227479;1198;140461;-70
2021/11/18 11:51:56;;;;;;;10.50;6.80;;;;;;;8.23;74.66;100470.06;229234;1198;140799;-71
2021/11/18 11:57:07;;;;;;;11.90;5.50;;;;;;;8.28;74.70;100467.17;229069;1198;140044;-70
2021/11/18 12:02:58;;;;;;;13.70;6.30;;;;;;;8.23;74.58;100463.39;227809;1198;140152;-70
2021/11/18 12:08:13;;;;;;;8.10;4.50;;;;;;;8.20;74.55;100458.08;227258;1198;141734;-69
2021/11/18 12:13:41;;;;;;;10.50;8.60;;;;;;;8.11;74.20;100455.44;228289;1198;140651;-71
2021/11/18 12:19:55;;;;;;;12.00;8.20;;;;;;;7.95;74.52;100447.55;227975;1198;141480;-72
2021/11/18 12:25:40;;;;;;;13.70;8.50;;;;;;;7.92;74.71;100449.73;226900;1198;150512;-69
2021/11/18 12:30:47;;;;;;;13.20;8.40;;;;;;;8.01;74.70;100442.79;225899;1198;140659;-69
2021/11/18 12:36:11;;;;;;;16.30;8.30;;;;;;;8.12;74.72;100442.36;226463;1198;139498;-70
2021/11/18 12:41:44;;;;;;;12.90;8.00;;;;;;;8.11;74.76;100443.02;228191;1198;141223;-72
2021/11/18 12:47:07;;;;;;;10.30;6.90;;;;;;;8.13;74.66;100424.35;226222;1199;139973;-71
2021/11/18 12:53:11;;;;;;;17.10;8.70;;;;;;;8.13;74.94;100411.73;227170;1198;140981;-71
2021/11/18 12:58:39;;;;;;;;;;;;;;;;;;;;;
2021/11/18 13:04:12;;;;;;;11.40;7.70;;;;;;;8.25;74.81;100404.54;227616;1198;142700;-70
2021/11/18 13:09:18;;;;;;;14.00;8.40;;;;;;;8.16;74.70;100401.23;226488;1198;141063;-72
2021/11/18 13:14:49;;;;;;;15.70;9.70;;;;;;;8.12;74.91;100400.08;226438;1198;140844;-72
2021/11/18 13:21:05;;;;;;;14.00;8.10;;;;;;;8.12;74.95;100401.39;226837;1198;143169;-73
2021/11/18 13:26:54;;;;;;;24.00;10.50;;;;;;;8.03;74.96;100394.09;226809;1198;140296;-72
2021/11/18 13:32:22;;;;;;;18.40;8.20;;;;;;;7.97;75.10;100402.52;228168;1198;140272;-72
2021/11/18 13:38:05;;;;;;;16.00;8.90;;;;;;;8.01;75.08;100401.29;228984;1199;140277;-71
2021/11/18 13:43:26;;;;;;;21.60;9.00;;;;;;;8.05;75.18;100394.64;228998;1198;140836;-73
2021/11/18 13:48:47;;;;;;;14.90;8.00;;;;;;;8.01;75.15;100394.74;229305;1198;139572;-70
2021/11/18 13:54:50;;;;;;;34.00;14.80;;;;;;;7.99;75.00;100407.20;228444;1198;140196;-71
2021/11/18 14:00:00;;;;;;;136.50;55.00;;;;;;;7.96;75.10;100418.42;227839;1203;140490;-72
2021/11/18 14:05:10;;;;;;;26.80;10.50;;;;;;;7.97;75.17;100429.48;228128;1198;140823;-69
2021/11/18 14:10:26;;;;;;;17.80;11.20;;;;;;;8.01;75.11;100433.30;226273;1198;141196;-73
2021/11/18 14:15:54;;;;;;;21.30;9.90;;;;;;;7.99;75.07;100428.48;226876;1198;140900;-69
2021/11/18 14:21:50;;;;;;;16.30;10.70;;;;;;;7.93;75.47;100414.07;226586;1198;139451;-70
2021/11/18 14:27:00;;;;;;;15.10;8.70;;;;;;;7.92;75.16;100407.09;226466;1199;140569;-76
2021/11/18 14:32:34;;;;;;;14.00;9.30;;;;;;;7.87;75.26;100413.80;226681;1198;139758;-72
2021/11/18 14:38:18;;;;;;;17.60;8.20;;;;;;;7.80;75.36;100417.90;226189;1198;139796;-73
2021/11/18 14:44:12;;;;;;;14.40;8.50;;;;;;;7.74;75.25;100419.84;226705;1198;139681;-72
2021/11/18 14:49:37;;;;;;;18.10;8.30;;;;;;;7.70;75.51;100423.17;226190;1198;140526;-72
2021/11/18 14:54:46;;;;;;;18.40;10.70;;;;;;;7.68;75.52;100429.33;227241;1198;140880;-72
2021/11/18 14:59:50;;;;;;;16.90;8.90;;;;;;;7.67;75.62;100432.55;227484;1198;140772;-73
2021/11/18 15:04:53;;;;;;;13.10;10.10;;;;;;;7.67;75.48;100429.48;228169;1198;140460;-71
2021/11/18 15:10:00;;;;;;;17.90;9.70;;;;;;;7.65;75.62;100429.89;227525;1198;140064;-69
2021/11/18 15:15:09;;;;;;;10.60;7.10;;;;;;;7.64;75.96;100434.09;227529;1198;139540;-74
2021/11/18 15:20:12;;;;;;;20.90;9.70;;;;;;;7.66;75.85;100443.61;227378;1198;140701;-68
2021/11/18 15:25:23;;;;;;;19.20;10.70;;;;;;;7.71;75.81;100437.05;226874;1198;142592;-71
2021/11/18 15:30:34;;;;;;;18.80;9.40;;;;;;;7.74;75.94;100434.54;227235;1198;141246;-73
2021/11/18 15:35:40;;;;;;;13.10;9.80;;;;;;;7.73;76.03;100430.45;227037;1198;139280;-73
2021/11/18 15:41:07;;;;;;;17.20;8.70;;;;;;;7.71;75.89;100420.85;227588;1198;141859;-72
2021/11/18 15:46:12;;;;;;;17.90;9.60;;;;;;;7.72;75.86;100412.02;229286;1198;142256;-73
2021/11/18 15:51:22;;;;;;;14.20;9.70;;;;;;;7.70;75.72;100405.33;229210;1198;139863;-73
2021/11/18 15:56:29;;;;;;;20.10;8.80;;;;;;;7.70;75.75;100399.04;229138;1198;139795;-72
2021/11/18 16:02:01;;;;;;;16.90;8.40;;;;;;;7.76;75.88;100410.83;228097;1198;140311;-71
2021/11/18 16:07:38;;;;;;;20.00;8.70;;;;;;;7.80;76.06;100415.58;228975;1198;139250;-73
2021/11/18 16:12:42;;;;;;;16.90;9.90;;;;;;;7.79;76.13;100410.63;227621;1198;139491;-73
2021/11/18 16:17:55;;;;;;;;;;;;;;;;;;;;;
2021/11/18 16:23:49;;;;;;;14.50;8.60;;;;;;;7.81;76.18;100431.34;226479;1198;139878;-69
2021/11/18 16:29:14;;;;;;;;;;;;;;;;;;;;;
2021/11/18 16:34:21;;;;;;;23.80;10.40;;;;;;;7.78;76.20;100427.53;226107;1198;139535;-69
2021/11/18 16:39:35;;;;;;;16.10;10.70;;;;;;;7.80;76.16;100432.44;226532;1198;140957;-70
2021/11/18 16:44:44;;;;;;;18.20;10.70;;;;;;;7.83;76.32;100448.91;227235;1198;140267;-71
2021/11/18 16:49:48;;;;;;;22.80;11.10;;;;;;;7.82;76.48;100458.30;226087;1198;139342;-70
2021/11/18 16:55:05;;;;;;;18.80;11.20;;;;;;;7.80;76.42;100445.17;226270;1199;139757;-70
2021/11/18 17:00:24;;;;;;;15.70;10.50;;;;;;;7.80;76.19;100417.21;226580;1198;141959;-70
2021/11/18 17:05:30;;;;;;;17.10;10.00;;;;;;;7.79;76.40;100421.16;226463;1198;140210;-69
2021/11/18 17:10:39;;;;;;;15.10;8.20;;;;;;;7.75;76.43;100429.15;227220;1198;139382;-69
2021/11/18 17:15:57;;;;;;;;;;;;;;;;;;;;;
2021/11/18 17:21:15;;;;;;;14.60;8.60;;;;;;;7.75;76.16;100423.52;226398;1198;141073;-71
2021/11/18 17:26:27;;;;;;;15.30;10.20;;;;;;;7.71;76.66;100426.64;227369;1198;140309;-71
2021/11/18 17:32:05;;;;;;;19.90;9.60;;;;;;;7.70;76.70;100432.31;227391;1199;140913;-70
2021/11/18 17:37:41;;;;;;;21.70;12.40;;;;;;;7.74;76.52;100436.17;228553;1198;140163;-68
2021/11/18 17:42:49;;;;;;;16.60;10.80;;;;;;;7.74;76.76;100422.45;227524;1200;139839;-70
2021/11/18 17:48:24;;;;;;;;;;;;;;;;;;;;;
2021/11/18 17:53:31;;;;;;;12.50;8.10;;;;;;;7.84;76.71;100407.66;229057;1198;141319;-71
2021/11/18 17:58:36;;;;;;;17.00;7.40;;;;;;;7.83;76.52;100395.38;228627;1198;139353;-71
2021/11/18 18:03:44;;;;;;;17.20;9.70;;;;;;;7.80;76.66;100390.80;229139;1198;141438;-70
2021/11/18 18:08:48;;;;;;;22.90;11.40;;;;;;;7.85;76.69;100389.95;228814;1198;140528;-68
2021/11/18 18:14:15;;;;;;;17.70;10.10;;;;;;;7.87;76.71;100382.81;226066;1200;140408;-72
2021/11/18 18:19:20;;;;;;;22.10;10.50;;;;;;;7.87;76.92;100371.21;227319;1199;139913;-71
2021/11/18 18:24:24;;;;;;;24.00;12.90;;;;;;;7.85;76.62;100363.77;226648;1198;140980;-73
2021/11/18 18:29:28;;;;;;;15.40;10.50;;;;;;;7.81;76.92;100359.19;227116;1199;140872;-70
2021/11/18 18:34:32;;;;;;;25.20;12.80;;;;;;;7.77;77.11;100357.50;227801;1198;141634;-71
2021/11/18 18:39:40;;;;;;;22.70;13.60;;;;;;;7.75;77.05;100344.96;227666;1198;140578;-70
2021/11/18 18:44:43;;;;;;;15.20;9.90;;;;;;;7.76;77.14;100336.96;227160;1200;140224;-72
2021/11/18 18:49:49;;;;;;;30.70;12.00;;;;;;;7.71;77.24;100327.02;227099;1198;142751;-70
2021/11/18 18:54:53;;;;;;;24.30;12.10;;;;;;;7.66;77.31;100314.98;226707;1198;139792;-68
2021/11/18 19:00:02;;;;;;;24.60;10.60;;;;;;;7.64;77.20;100310.77;225988;1199;141154;-69
2021/11/18 19:05:08;;;;;;;16.60;10.80;;;;;;;7.63;77.77;100319.85;226814;1198;139813;-69
2021/11/18 19:10:21;;;;;;;22.30;11.70;;;;;;;7.63;77.61;100325.64;226855;1200;140445;-71
2021/11/18 19:15:46;;;;;;;;;;;;;;;;;;;;;
2021/11/18 19:20:52;;;;;;;16.30;9.10;;;;;;;7.64;77.69;100305.55;228562;1198;140229;-70
2021/11/18 19:26:03;;;;;;;18.80;11.30;;;;;;;7.61;77.86;100304.70;226895;1198;140219;-69
2021/11/18 19:36:43;;;;;;;22.80;9.90;;;;;;;7.64;77.92;100305.63;228383;1198;140190;-69
2021/11/18 19:41:52;;;;;;;14.90;7.70;;;;;;;7.63;77.82;100307.48;228082;1198;140746;-70
2021/11/18 19:46:55;;;;;;;9.20;6.80;;;;;;;7.64;77.63;100312.98;228826;1199;140334;-71
2021/11/18 19:52:11;;;;;;;13.40;7.00;;;;;;;7.63;77.94;100313.59;229290;1198;140792;-72
2021/11/18 19:57:23;;;;;;;15.60;7.80;;;;;;;7.64;77.70;100304.23;229385;1198;140894;-70
2021/11/18 20:02:53;;;;;;;18.20;8.20;;;;;;;7.69;77.98;100298.85;228833;1198;139867;-72
2021/11/18 20:07:56;;;;;;;11.70;6.80;;;;;;;7.71;77.77;100296.05;229143;1190;141411;-71
2021/11/18 20:13:25;;;;;;;17.00;8.00;;;;;;;7.69;77.55;100287.63;228706;1198;139926;-70
2021/11/18 20:18:30;;;;;;;8.60;6.80;;;;;;;7.66;78.08;100282.19;226593;1198;140139;-75
2021/11/18 20:23:37;;;;;;;17.80;8.70;;;;;;;7.68;77.81;100276.80;228042;1198;139163;-75
2021/11/18 20:29:05;;;;;;;13.50;8.00;;;;;;;7.74;78.08;100271.67;228052;1199;140860;-72
2021/11/18 20:34:11;;;;;;;;;;;;;;;7.72;78.12;100267.59;227562;1198;139415;-72
2021/11/18 20:39:23;;;;;;;10.80;7.00;;;;;;;7.65;78.12;100262.16;227305;1198;126144;-73
2021/11/18 20:44:27;;;;;;;21.70;8.30;;;;;;;7.67;78.09;100255.91;226550;1198;141271;-72
2021/11/18 20:49:37;;;;;;;14.00;7.60;;;;;;;7.71;77.88;100250.11;227946;1198;140632;-76
2021/11/18 20:54:42;;;;;;;21.50;8.20;;;;;;;7.65;78.01;100244.11;227089;1198;143123;-73
2021/11/18 20:59:54;;;;;;;21.50;8.10;;;;;;;7.65;77.79;100241.90;226947;1199;140684;-74
2021/11/18 21:05:33;;;;;;;13.90;7.70;;;;;;;7.68;78.18;100239.04;226234;1198;141007;-73
2021/11/18 21:10:46;;;;;;;13.80;7.90;;;;;;;7.65;78.26;100226.81;226882;1198;140089;-69
2021/11/18 21:16:10;;;;;;;17.10;7.60;;;;;;;7.65;77.96;100226.06;226823;1199;140344;-72
2021/11/18 21:21:16;;;;;;;11.30;6.20;;;;;;;7.65;77.94;100215.61;227707;1198;140693;-74
2021/11/18 21:26:23;;;;;;;12.80;5.40;;;;;;;7.62;77.97;100209.67;227383;1199;139854;-73
2021/11/18 21:31:30;;;;;;;19.20;9.50;;;;;;;7.65;77.95;100202.42;226588;1198;141017;-73
2021/11/18 21:36:45;;;;;;;18.00;7.90;;;;;;;7.64;77.78;100193.54;227157;1195;139779;-78
2021/11/18 21:41:51;;;;;;;8.80;5.70;;;;;;;7.63;77.80;100195.48;227367;1198;140178;-71
2021/11/18 21:47:00;;;;;;;12.10;6.80;;;;;;;7.63;77.93;100194.89;227934;1198;139091;-73
2021/11/18 21:52:06;;;;;;;9.70;5.90;;;;;;;7.63;77.58;100201.05;227621;1198;142431;-74
2021/11/18 21:57:24;;;;;;;15.90;7.80;;;;;;;7.60;77.93;100180.61;228674;1198;139330;-73
2021/11/18 22:02:28;;;;;;;13.10;7.90;;;;;;;7.62;77.86;100166.00;229155;1198;140601;-72
2021/11/18 22:07:36;;;;;;;13.00;5.70;;;;;;;7.68;77.86;100157.98;229407;1198;139623;-75
2021/11/18 22:12:42;;;;;;;;;;;;;;;7.70;77.71;100161.08;228554;1198;141562;-75
2021/11/18 22:17:47;;;;;;;13.70;6.10;;;;;;;7.67;77.79;100157.20;229187;1198;126669;-71
2021/11/18 22:22:59;;;;;;;9.00;6.00;;;;;;;7.72;77.65;100140.42;227935;1198;140786;-71
2021/11/18 22:28:05;;;;;;;13.00;6.10;;;;;;;7.71;77.37;100124.30;227555;1198;141980;-70
2021/11/18 22:33:08;;;;;;;9.70;5.60;;;;;;;7.71;77.41;100120.00;228005;1198;140502;-71
2021/11/18 22:38:35;;;;;;;9.70;6.00;;;;;;;7.74;77.30;100111.44;227373;1198;234988;-75
2021/11/18 22:43:41;;;;;;;10.50;5.60;;;;;;;7.69;77.42;100113.59;226377;1198;139230;-71
2021/11/18 22:48:51;;;;;;;14.60;6.50;;;;;;;7.68;77.54;100113.41;227575;1198;139784;-72
2021/11/18 22:53:55;;;;;;;11.10;5.80;;;;;;;7.63;77.52;100114.39;227344;1198;139863;-73
2021/11/18 22:59:00;;;;;;;8.10;4.60;;;;;;;7.61;77.77;100111.72;226677;1198;142017;-70
2021/11/18 23:04:05;;;;;;;16.80;6.50;;;;;;;7.60;77.32;100102.98;227597;1198;140687;-71
2021/11/18 23:09:40;;;;;;;;;;;;;;;;;;;;;
2021/11/18 23:14:45;;;;;;;13.20;6.90;;;;;;;7.54;77.73;100085.72;227257;1198;141109;-72
2021/11/18 23:19:52;;;;;;;13.80;6.60;;;;;;;7.53;77.91;100088.04;226361;1198;141380;-70
2021/11/18 23:25:05;;;;;;;9.40;6.30;;;;;;;7.53;77.81;100085.40;226343;1198;141829;-71
2021/11/18 23:30:29;;;;;;;8.40;5.70;;;;;;;7.54;77.54;100079.64;227151;1198;140176;-70
2021/11/18 23:35:38;;;;;;;8.80;6.30;;;;;;;7.50;77.96;100074.87;228074;1198;140161;-70
2021/11/18 23:40:45;;;;;;;14.80;8.10;;;;;;;7.47;77.93;100070.25;226896;1198;140553;-69
2021/11/18 23:45:57;;;;;;;16.20;8.30;;;;;;;7.41;78.06;100074.37;227268;1199;139666;-74
2021/11/18 23:51:01;;;;;;;7.90;5.10;;;;;;;7.38;78.45;100076.45;226886;1198;142820;-72
2021/11/18 23:56:04;;;;;;;9.60;7.80;;;;;;;7.32;78.40;100078.31;227684;1198;139650;-72
